Time;durP1;ratioP1;P1;durP2;ratioP2;P2;SDS_P1;SDS_P2;PMS_P1;PMS_P2;Temp;Humidity;BMP_temperature;BMP_pressure;BME280_temperature;BME280_humidity;BME280_pressure;Samples;Min_cycle;Max_cycle;Signal;HPM_P1;HPM_P2
2023/03/16 00:00:33;;;;;;;12.27;11.27;;;3.30;98.40;;;;;;2613983;54;20925;-72
2023/03/16 00:06:20;;;;;;;11.10;10.40;;;3.30;97.60;;;;;;2615279;31;20615;-71
2023/03/16 00:12:15;;;;;;;12.23;11.50;;;3.10;99.90;;;;;;2613026;54;20322;-71
2023/03/16 00:18:02;;;;;;;11.80;10.77;;;3.20;97.60;;;;;;2614713;54;20378;-72
2023/03/16 00:23:52;;;;;;;12.27;11.10;;;3.00;99.90;;;;;;2614657;54;20114;-71
2023/03/16 00:29:47;;;;;;;11.77;10.67;;;3.10;99.90;;;;;;2614791;39;20736;-71
2023/03/16 00:35:34;;;;;;;12.07;11.10;;;3.10;99.90;;;;;;2613742;54;20394;-71
2023/03/16 00:41:22;;;;;;;16.87;10.50;;;3.10;99.90;;;;;;2614469;54;20127;-72
2023/03/16 00:47:14;;;;;;;12.07;10.87;;;2.90;99.90;;;;;;2614593;54;20671;-73
2023/03/16 00:53:01;;;;;;;11.03;10.23;;;3.30;99.80;;;;;;2613502;54;20411;-73
2023/03/16 01:02:40;;;;;;;11.80;10.80;;;3.50;97.90;;;;;;2613813;54;21480;-72
2023/03/16 01:08:27;;;;;;;12.07;11.07;;;3.30;98.30;;;;;;2614557;39;20737;-72
2023/03/16 01:14:15;;;;;;;10.90;10.20;;;3.40;97.70;;;;;;2614368;54;20130;-74
2023/03/16 01:20:07;;;;;;;12.57;10.63;;;3.50;95.60;;;;;;2614564;54;20115;-72
2023/03/16 01:25:55;;;;;;;13.03;11.83;;;3.80;91.80;;;;;;2614061;54;20382;-73
2023/03/16 01:31:43;;;;;;;12.13;11.17;;;3.90;84.20;;;;;;2613447;54;20431;-73
2023/03/16 01:37:30;;;;;;;12.53;11.50;;;4.00;77.40;;;;;;2614712;39;20526;-72
2023/03/16 01:43:20;;;;;;;11.43;10.73;;;4.00;73.70;;;;;;2614629;54;20138;-72
2023/03/16 01:49:11;;;;;;;10.97;10.33;;;4.10;64.40;;;;;;2612501;54;20861;-73
2023/03/16 01:55:07;;;;;;;13.60;10.87;;;4.00;65.30;;;;;;2614508;39;20973;-73
2023/03/16 01:58:08;;;;;;;12.13;11.33;;;4.00;63.40;;;;;;2612453;54;20428;-73
2023/03/16 02:00:34;;;;;;;11.33;10.63;;;3.90;64.40;;;;;;2611358;54;20390;-73
2023/03/16 02:06:22;;;;;;;12.13;11.40;;;4.00;60.20;;;;;;2612099;54;20170;-72
2023/03/16 02:12:16;;;;;;;10.43;9.83;;;3.90;65.10;;;;;;2611689;54;20395;-72
2023/03/16 02:18:06;;;;;;;12.47;11.57;;;3.80;69.70;;;;;;2612311;54;20381;-72
2023/03/16 02:23:53;;;;;;;12.23;11.43;;;3.90;63.50;;;;;;2611903;54;20402;-73
2023/03/16 02:30:05;;;;;;;11.90;11.10;;;3.80;59.00;;;;;;2612339;54;20123;-72
2023/03/16 02:35:52;;;;;;;11.40;10.60;;;3.90;56.40;;;;;;2613615;54;20419;-72
2023/03/16 02:41:40;;;;;;;12.00;11.20;;;3.90;52.80;;;;;;2613015;54;20147;-72
2023/03/16 02:47:39;;;;;;;11.30;10.70;;;3.70;57.10;;;;;;2613261;54;20391;-73
2023/03/16 02:53:26;;;;;;;11.17;10.47;;;3.60;62.40;;;;;;2613848;54;20394;-71
2023/03/16 03:02:43;;;;;;;11.37;10.63;;;3.60;64.80;;;;;;2613359;54;20391;-73
2023/03/16 03:08:31;;;;;;;11.40;10.67;;;3.80;61.30;;;;;;2614413;54;20379;-72
2023/03/16 03:14:19;;;;;;;11.10;10.50;;;3.80;63.80;;;;;;2613986;54;20415;-73
2023/03/16 03:20:12;;;;;;;10.97;10.33;;;4.00;59.10;;;;;;2613234;54;20130;-73
2023/03/16 03:26:01;;;;;;;11.40;10.67;;;3.90;62.60;;;;;;2614905;54;20497;-73
2023/03/16 03:31:49;;;;;;;11.10;10.37;;;3.90;60.80;;;;;;2614661;54;20371;-73
2023/03/16 03:37:41;;;;;;;11.37;10.57;;;4.00;59.60;;;;;;2614312;54;20115;-73
2023/03/16 03:43:30;;;;;;;11.27;10.67;;;4.10;55.10;;;;;;2614891;54;20445;-73
2023/03/16 03:49:17;;;;;;;12.43;11.73;;;4.20;53.10;;;;;;2613626;54;20423;-72
2023/03/16 03:55:06;;;;;;;11.33;10.67;;;4.30;50.80;;;;;;2614432;54;20194;-72
2023/03/16 03:58:09;;;;;;;11.60;10.90;;;4.30;49.50;;;;;;2613916;54;20930;-72
2023/03/16 04:00:35;;;;;;;10.80;10.20;;;4.20;50.80;;;;;;2613785;54;20952;-72
2023/03/16 04:06:22;;;;;;;12.37;11.57;;;4.30;50.40;;;;;;2614043;54;20134;-72
2023/03/16 04:12:10;;;;;;;11.83;11.13;;;4.30;50.90;;;;;;2614103;54;20131;-72
2023/03/16 04:17:58;;;;;;;11.70;10.90;;;4.40;51.70;;;;;;2615494;39;20767;-73
2023/03/16 04:23:48;;;;;;;10.90;10.10;;;4.50;49.50;;;;;;2613680;54;20367;-73
2023/03/16 04:29:36;;;;;;;11.33;10.83;;;4.40;50.60;;;;;;2615134;31;20866;-73
2023/03/16 04:35:23;;;;;;;12.70;11.50;;;4.30;53.80;;;;;;2614586;54;20127;-72
2023/03/16 04:41:11;;;;;;;12.07;11.27;;;4.30;57.20;;;;;;2614872;39;20515;-72
2023/03/16 04:46:59;;;;;;;10.60;10.10;;;4.20;61.20;;;;;;2613463;54;20150;-73
2023/03/16 04:52:46;;;;;;;13.93;11.50;;;4.30;63.20;;;;;;2614411;39;20743;-72
2023/03/16 05:02:43;;;;;;;11.63;10.83;;;4.40;62.10;;;;;;2613019;54;20507;-73
2023/03/16 05:08:30;;;;;;;11.13;10.43;;;4.50;64.10;;;;;;2614182;54;20418;-72
2023/03/16 05:14:18;;;;;;;11.93;11.03;;;4.40;64.70;;;;;;2614477;54;20169;-73
2023/03/16 05:20:11;;;;;;;11.83;11.03;;;4.50;66.30;;;;;;2613963;54;20786;-71
2023/03/16 05:25:59;;;;;;;12.23;11.33;;;4.60;62.80;;;;;;2614294;54;20486;-72
2023/03/16 05:31:47;;;;;;;13.03;11.80;;;4.60;65.00;;;;;;2614722;39;20761;-72
2023/03/16 05:37:36;;;;;;;12.67;11.50;;;4.60;66.00;;;;;;2614025;54;20126;-73
2023/03/16 05:43:25;;;;;;;11.83;11.03;;;4.70;65.00;;;;;;2614354;54;20399;-73
2023/03/16 05:49:12;;;;;;;12.40;11.60;;;4.70;62.60;;;;;;2614490;54;20395;-72
2023/03/16 05:55:00;;;;;;;12.33;11.63;;;4.70;63.80;;;;;;2613483;54;20279;-73
2023/03/16 05:58:10;;;;;;;12.70;11.77;;;4.80;60.90;;;;;;2613671;54;20921;-73
2023/03/16 06:00:38;;;;;;;11.63;10.70;;;4.80;60.00;;;;;;2611985;47;20165;-72
2023/03/16 06:06:25;;;;;;;13.00;12.00;;;4.80;60.80;;;;;;2613944;54;20539;-72
2023/03/16 06:12:13;;;;;;;13.20;12.10;;;4.80;57.90;;;;;;2613681;54;20121;-73
2023/03/16 06:18:01;;;;;;;13.33;12.40;;;4.70;56.90;;;;;;2613611;54;20366;-73
2023/03/16 06:23:49;;;;;;;13.63;12.50;;;4.70;57.60;;;;;;2613987;54;20266;-72
2023/03/16 06:29:37;;;;;;;13.83;12.90;;;4.80;54.40;;;;;;2612582;54;20442;-72
2023/03/16 06:35:26;;;;;;;14.07;12.80;;;4.90;51.80;;;;;;2613989;54;20166;-73
2023/03/16 06:41:13;;;;;;;12.87;12.07;;;5.10;46.90;;;;;;2613512;54;20378;-72
2023/03/16 06:47:03;;;;;;;12.70;11.80;;;5.40;40.20;;;;;;2613938;54;20134;-76
2023/03/16 06:52:50;;;;;;;13.13;12.13;;;5.50;36.90;;;;;;2609998;54;20394;-72
2023/03/16 07:02:44;;;;;;;11.30;10.60;;;5.60;39.00;;;;;;2612294;54;21060;-73
2023/03/16 07:08:32;;;;;;;12.17;11.27;;;5.60;37.40;;;;;;2608914;54;20459;-72
2023/03/16 07:14:22;;;;;;;12.00;11.10;;;5.70;34.00;;;;;;2611549;39;20545;-74
2023/03/16 07:20:11;;;;;;;12.67;11.77;;;5.80;32.50;;;;;;2609214;54;20921;-72
2023/03/16 07:25:59;;;;;;;12.57;11.37;;;6.70;25.20;;;;;;2612095;54;20367;-74
2023/03/16 07:31:47;;;;;;;11.60;10.90;;;6.50;22.90;;;;;;2610162;54;20142;-74
2023/03/16 07:37:35;;;;;;;12.23;11.43;;;6.30;23.40;;;;;;2610006;39;20327;-73
2023/03/16 07:43:23;;;;;;;12.93;12.03;;;6.50;23.90;;;;;;2609828;54;20420;-72
2023/03/16 07:49:12;;;;;;;13.30;12.40;;;6.70;22.60;;;;;;2611904;54;20529;-73
2023/03/16 07:55:00;;;;;;;12.80;12.00;;;7.50;16.50;;;;;;2612083;54;20346;-73
2023/03/16 07:57:50;;;;;;;13.43;12.67;;;7.80;14.70;;;;;;2611634;54;20506;-73
2023/03/16 08:00:19;;;;;;;12.63;11.73;;;7.30;14.10;;;;;;2609194;54;20701;-74
2023/03/16 08:06:07;;;;;;;12.93;12.13;;;7.80;13.60;;;;;;2612758;54;20398;-73
2023/03/16 08:11:54;;;;;;;12.47;11.77;;;7.40;14.50;;;;;;2613635;54;20167;-72
2023/03/16 08:17:42;;;;;;;14.00;13.20;;;7.30;14.90;;;;;;2613181;54;20126;-73
2023/03/16 08:23:32;;;;;;;13.63;12.83;;;7.30;16.10;;;;;;2611723;54;20137;-73
2023/03/16 08:29:20;;;;;;;13.53;12.70;;;7.20;17.90;;;;;;2614282;54;20364;-73
2023/03/16 08:35:12;;;;;;;13.40;12.60;;;7.00;18.80;;;;;;2614338;46;20246;-72
2023/03/16 08:41:00;;;;;;;12.80;12.00;;;7.10;19.60;;;;;;2613428;54;20390;-73
2023/03/16 08:46:48;;;;;;;13.03;12.03;;;7.40;20.70;;;;;;2614558;54;20430;-74
2023/03/16 08:52:36;;;;;;;13.40;12.27;;;7.10;19.30;;;;;;2613270;54;20158;-73
2023/03/16 09:02:41;;;;;;;13.30;12.50;;;6.90;18.80;;;;;;2613509;54;20397;-73
2023/03/16 09:08:29;;;;;;;14.17;13.30;;;7.10;20.60;;;;;;2613413;54;20500;-73
2023/03/16 09:14:17;;;;;;;14.83;13.40;;;7.00;21.20;;;;;;2613081;54;20387;-73
2023/03/16 09:20:08;;;;;;;13.33;12.43;;;7.00;21.10;;;;;;2614027;54;20387;-73
2023/03/16 09:25:58;;;;;;;13.33;12.60;;;7.10;21.50;;;;;;2614256;39;20533;-73
2023/03/16 09:31:46;;;;;;;14.47;13.17;;;7.50;20.40;;;;;;2613359;46;20505;-73
2023/03/16 09:37:35;;;;;;;13.33;12.60;;;8.00;16.80;;;;;;2614607;54;20386;-73
2023/03/16 09:43:42;;;;;;;14.80;13.70;;;8.30;13.90;;;;;;2613518;39;20794;-73
2023/03/16 09:49:39;;;;;;;13.97;12.97;;;9.40;10.90;;;;;;2612348;39;20777;-73
2023/03/16 09:55:32;;;;;;;15.57;14.67;;;9.00;9.60;;;;;;2612980;54;20423;-74
2023/03/16 10:05:14;;;;;;;14.40;13.30;;;9.50;8.50;;;;;;2608867;54;20451;-73
2023/03/16 10:14:52;;;;;;;15.90;14.90;;;8.90;13.60;;;;;;2609565;54;20992;-72
2023/03/16 10:20:40;;;;;;;15.47;14.23;;;9.30;12.90;;;;;;2613296;39;20802;-74
2023/03/16 10:32:42;;;;;;;15.80;14.03;;;9.10;12.10;;;;;;2613099;46;20361;-74
2023/03/16 10:38:32;;;;;;;15.30;14.30;;;9.20;12.20;;;;;;2609812;54;20375;-73
2023/03/16 10:44:27;;;;;;;15.10;14.00;;;9.20;14.20;;;;;;2613734;54;20473;-74
2023/03/16 10:50:15;;;;;;;14.33;13.43;;;9.30;14.70;;;;;;2614247;54;20945;-72
2023/03/16 10:56:12;;;;;;;15.60;14.60;;;9.00;14.10;;;;;;2613224;54;20619;-74
2023/03/16 11:11:36;;;;;;;14.17;13.37;;;9.50;14.10;;;;;;2612027;54;20399;-74
2023/03/16 11:17:44;;;;;;;13.43;12.50;;;9.70;12.80;;;;;;2614109;54;20226;-75
2023/03/16 11:23:35;;;;;;;16.77;14.40;;;10.10;9.00;;;;;;2612035;54;20544;-74
2023/03/16 11:42:22;;;;;;;13.70;12.90;;;13.60;1.00;;;;;;2612531;54;20895;-74
2023/03/16 11:58:36;;;;;;;12.37;11.67;;;13.40;1.00;;;;;;2613544;54;20984;-73
2023/03/16 12:11:03;;;;;;;12.50;11.67;;;16.10;1.00;;;;;;2613130;39;20917;-74
2023/03/16 12:16:56;;;;;;;12.03;11.33;;;14.70;1.00;;;;;;2613384;54;20229;-74
2023/03/16 12:52:07;;;;;;;12.00;11.50;;;12.30;1.00;;;;;;2613854;54;20522;-74
2023/03/16 13:07:50;;;;;;;12.67;11.77;;;12.30;1.00;;;;;;2614517;54;20427;-73
2023/03/16 13:30:30;;;;;;;13.30;12.60;;;13.20;1.00;;;;;;2611131;54;20412;-73
2023/03/16 13:36:16;;;;;;;13.80;13.07;;;14.60;1.00;;;;;;2611962;54;21132;-74
2023/03/16 13:42:17;;;;;;;14.80;13.90;;;15.10;1.00;;;;;;2610644;54;20377;-72
2023/03/16 13:48:04;;;;;;;13.70;13.00;;;17.30;1.00;;;;;;2611967;54;21125;-73
2023/03/16 13:53:52;;;;;;;14.30;13.10;;;15.60;1.00;;;;;;2613792;54;20133;-75
2023/03/16 13:59:42;;;;;;;14.83;13.80;;;16.40;1.00;;;;;;2612695;54;20419;-74
2023/03/16 14:05:33;;;;;;;12.93;12.13;;;15.00;1.00;;;;;;2613637;54;20371;-74
2023/03/16 14:11:20;;;;;;;14.17;13.47;;;15.80;1.00;;;;;;2611040;54;20540;-74
2023/03/16 14:17:13;;;;;;;13.90;13.07;;;16.10;1.00;;;;;;2611955;54;20133;-74
2023/03/16 14:26:22;;;;;;;13.57;12.70;;;14.60;1.00;;;;;;2612631;54;20451;-74
2023/03/16 14:32:27;;;;;;;15.00;14.10;;;14.20;1.00;;;;;;2612110;39;21047;-74
2023/03/16 14:42:24;;;;;;;12.47;11.87;;;15.20;1.00;;;;;;2612843;54;20510;-74
2023/03/16 14:48:18;;;;;;;13.70;12.60;;;14.80;1.00;;;;;;2613471;54;20399;-74
2023/03/16 14:54:17;;;;;;;15.13;14.20;;;15.30;1.00;;;;;;2613919;54;20962;-74
2023/03/16 15:00:08;;;;;;;12.73;12.13;;;16.00;1.00;;;;;;2612406;54;20426;-72
2023/03/16 15:16:21;;;;;;;13.57;12.97;;;15.60;1.00;;;;;;2612600;54;20976;-74
2023/03/16 15:22:11;;;;;;;13.27;12.43;;;15.40;1.00;;;;;;2612415;54;20395;-74
2023/03/16 15:27:58;;;;;;;14.53;13.60;;;14.60;1.00;;;;;;2611004;54;21012;-74
2023/03/16 15:33:46;;;;;;;13.57;12.53;;;13.80;1.00;;;;;;2609779;54;20212;-73
2023/03/16 15:39:33;;;;;;;12.07;11.47;;;14.00;1.00;;;;;;2612880;39;20446;-73
2023/03/16 15:45:22;;;;;;;13.13;12.33;;;14.50;1.00;;;;;;2614472;54;20130;-74
2023/03/16 15:57:26;;;;;;;13.30;12.40;;;14.30;1.00;;;;;;2614279;54;20363;-74
2023/03/16 16:03:14;;;;;;;14.00;12.90;;;13.80;1.00;;;;;;2613181;54;20137;-74
2023/03/16 16:12:25;;;;;;;13.67;13.07;;;13.70;1.00;;;;;;2614256;46;20446;-74
2023/03/16 16:24:39;;;;;;;14.27;13.00;;;12.90;1.00;;;;;;2614482;54;20410;-74
2023/03/16 16:30:30;;;;;;;12.20;11.70;;;12.60;1.00;;;;;;2613735;46;20157;-73
2023/03/16 16:36:19;;;;;;;12.80;12.20;;;12.30;1.00;;;;;;2613772;46;20503;-73
2023/03/16 16:42:14;;;;;;;13.23;12.47;;;12.00;1.00;;;;;;2614195;54;20379;-74
2023/03/16 16:45:18;;;;;;;12.90;11.90;;;11.90;1.00;;;;;;2613939;47;20440;-75
2023/03/16 16:47:44;;;;;;;13.50;12.60;;;12.00;1.00;;;;;;2613383;54;20415;-74
2023/03/16 16:53:31;;;;;;;12.20;11.50;;;12.00;1.00;;;;;;2612797;54;20399;-73
2023/03/16 16:59:21;;;;;;;13.07;12.23;;;11.60;1.00;;;;;;2610912;54;20418;-73
2023/03/16 17:15:02;;;;;;;13.60;12.77;;;11.10;1.00;;;;;;2612622;54;20407;-74
2023/03/16 17:20:51;;;;;;;11.83;11.13;;;10.90;1.00;;;;;;2611960;54;20134;-74
2023/03/16 17:26:43;;;;;;;13.30;12.60;;;10.70;1.00;;;;;;2611399;39;20967;-74
2023/03/16 17:32:30;;;;;;;13.37;12.77;;;10.60;1.00;;;;;;2610062;54;20574;-75
2023/03/16 17:38:23;;;;;;;13.77;12.93;;;10.60;1.00;;;;;;2610972;54;20871;-75
2023/03/16 17:44:13;;;;;;;13.33;12.73;;;10.30;2.10;;;;;;2612409;54;20483;-74
2023/03/16 17:50:01;;;;;;;12.90;12.20;;;10.20;2.70;;;;;;2611071;46;20430;-75
2023/03/16 17:55:49;;;;;;;12.40;11.60;;;10.20;2.90;;;;;;2610762;54;20415;-74
2023/03/16 18:01:37;;;;;;;12.30;11.20;;;10.00;4.00;;;;;;2612507;54;20119;-74
2023/03/16 18:07:25;;;;;;;12.13;11.50;;;10.10;3.50;;;;;;2611253;46;20422;-75
2023/03/16 18:16:35;;;;;;;13.37;12.70;;;9.90;6.00;;;;;;2614022;54;20411;-74
2023/03/16 18:22:23;;;;;;;13.07;12.43;;;9.90;6.90;;;;;;2612889;54;20134;-74
2023/03/16 18:28:12;;;;;;;13.03;12.23;;;9.90;6.70;;;;;;2611839;54;20387;-74
2023/03/16 18:34:04;;;;;;;12.50;11.90;;;10.10;5.20;;;;;;2610726;54;20350;-75
2023/03/16 18:39:53;;;;;;;13.53;12.73;;;9.90;7.00;;;;;;2611968;54;20372;-75
2023/03/16 18:45:45;;;;;;;12.60;12.00;;;9.90;7.90;;;;;;2613188;54;20391;-75
2023/03/16 18:51:33;;;;;;;13.37;12.63;;;10.10;6.20;;;;;;2612997;54;20386;-74
2023/03/16 18:57:24;;;;;;;13.83;13.00;;;10.00;6.40;;;;;;2613505;39;20561;-75
2023/03/16 19:09:31;;;;;;;12.67;11.87;;;10.00;6.00;;;;;;2611396;54;20367;-74
2023/03/16 19:12:03;;;;;;;13.10;12.40;;;10.00;5.50;;;;;;2613295;54;20412;-73
2023/03/16 19:14:33;;;;;;;14.50;13.70;;;10.00;5.40;;;;;;2611743;51;20970;-74
2023/03/16 19:17:37;;;;;;;11.37;10.80;;;10.00;5.80;;;;;;2611925;54;20524;-74
2023/03/16 19:20:03;;;;;;;12.37;11.77;;;9.90;6.60;;;;;;2611458;39;20873;-73
2023/03/16 19:25:53;;;;;;;14.43;13.17;;;10.00;5.10;;;;;;2611317;54;20197;-74
2023/03/16 19:31:41;;;;;;;11.80;11.30;;;10.10;4.40;;;;;;2613355;54;20395;-74
2023/03/16 19:37:29;;;;;;;12.40;11.70;;;10.00;4.70;;;;;;2611858;54;20162;-74
2023/03/16 19:43:19;;;;;;;12.70;12.03;;;9.80;5.90;;;;;;2614018;54;20123;-74
2023/03/16 19:49:21;;;;;;;13.13;12.53;;;9.80;6.10;;;;;;2613727;54;20427;-73
2023/03/16 20:01:42;;;;;;;12.77;12.00;;;9.90;5.70;;;;;;2613064;54;20436;-74
2023/03/16 20:07:29;;;;;;;13.17;12.47;;;9.80;6.70;;;;;;2613055;54;20172;-73
2023/03/16 20:16:38;;;;;;;14.30;13.40;;;9.70;7.30;;;;;;2613736;39;21098;-74
2023/03/16 20:22:27;;;;;;;13.60;12.90;;;9.60;7.90;;;;;;2611269;54;20152;-73
2023/03/16 20:28:21;;;;;;;13.03;12.40;;;9.60;8.20;;;;;;2613391;54;20383;-74
2023/03/16 20:38:30;;;;;;;13.70;12.90;;;9.60;9.10;;;;;;2613072;54;20461;-74
2023/03/16 20:44:22;;;;;;;13.97;13.20;;;9.70;9.30;;;;;;2611119;54;21001;-74
2023/03/16 20:50:27;;;;;;;13.03;12.43;;;9.70;8.60;;;;;;2612265;54;20510;-74
2023/03/16 20:56:20;;;;;;;13.43;12.73;;;9.70;8.70;;;;;;2613563;54;20376;-73
2023/03/16 21:08:46;;;;;;;13.90;13.10;;;9.80;8.90;;;;;;2611248;54;20505;-74
2023/03/16 21:12:06;;;;;;;13.50;12.70;;;9.70;9.20;;;;;;2612278;54;20399;-74
2023/03/16 21:14:32;;;;;;;13.17;12.57;;;9.70;9.30;;;;;;2612510;54;20170;-73
2023/03/16 21:20:21;;;;;;;12.57;11.80;;;9.60;9.80;;;;;;2614158;54;20367;-73
2023/03/16 21:26:21;;;;;;;12.57;11.97;;;9.70;9.40;;;;;;2614865;46;20462;-72
2023/03/16 21:38:42;;;;;;;12.07;11.37;;;9.60;10.10;;;;;;2611812;54;20543;-73
2023/03/16 21:44:30;;;;;;;12.00;11.40;;;9.70;10.00;;;;;;2614440;39;21087;-73
2023/03/16 21:50:22;;;;;;;13.33;12.27;;;9.80;9.20;;;;;;2613745;39;20624;-74
2023/03/16 21:56:14;;;;;;;14.20;13.03;;;9.80;9.40;;;;;;2613995;54;20367;-73
2023/03/16 22:02:02;;;;;;;12.90;12.17;;;9.70;9.30;;;;;;2613059;54;20516;-74
2023/03/16 22:07:50;;;;;;;13.50;12.80;;;9.60;9.90;;;;;;2613421;54;20191;-73
2023/03/16 22:17:03;;;;;;;12.90;11.90;;;9.80;8.90;;;;;;2614255;54;20419;-73
2023/03/16 22:22:53;;;;;;;11.50;11.00;;;9.70;8.80;;;;;;2613853;54;20496;-72
2023/03/16 22:28:41;;;;;;;11.70;11.10;;;9.70;8.80;;;;;;2613720;54;20431;-73
2023/03/16 22:40:47;;;;;;;12.00;11.40;;;9.80;8.20;;;;;;2612965;54;20395;-73
2023/03/16 22:46:35;;;;;;;13.40;12.53;;;9.70;8.50;;;;;;2613660;54;20186;-73
2023/03/16 22:52:29;;;;;;;12.67;11.87;;;9.70;9.30;;;;;;2614705;54;20122;-73
2023/03/16 22:58:24;;;;;;;13.10;11.87;;;9.60;9.30;;;;;;2613471;54;20380;-73
2023/03/16 23:04:18;;;;;;;11.47;10.87;;;10.00;7.10;;;;;;2614165;54;20468;-73
2023/03/16 23:10:07;;;;;;;12.60;11.90;;;10.00;7.00;;;;;;2613767;54;20472;-72
2023/03/16 23:12:32;;;;;;;11.90;11.30;;;10.00;7.10;;;;;;2613540;47;20419;-73
2023/03/16 23:14:58;;;;;;;12.43;11.73;;;9.90;8.50;;;;;;2613367;47;20984;-74
2023/03/16 23:20:47;;;;;;;11.87;11.27;;;10.00;7.40;;;;;;2613379;54;20130;-72
2023/03/16 23:26:35;;;;;;;11.50;10.77;;;9.90;8.60;;;;;;2613912;54;20411;-74
2023/03/16 23:32:23;;;;;;;13.63;11.50;;;10.00;8.20;;;;;;2614603;54;20383;-73
2023/03/16 23:38:12;;;;;;;12.30;11.53;;;10.00;8.10;;;;;;2614894;54;20130;-72
2023/03/16 23:44:00;;;;;;;12.60;11.90;;;10.10;7.40;;;;;;2614073;54;20379;-72
2023/03/16 23:49:48;;;;;;;12.40;11.70;;;10.00;7.60;;;;;;2613155;54;20492;-71
2023/03/16 23:55:36;;;;;;;12.60;11.70;;;10.30;6.80;;;;;;2614101;54;20158;-71
